createdAt,value
2023-04-18T00:07:07.017Z,11.40
2023-04-18T00:15:30.319Z,11.90
2023-04-18T00:23:53.320Z,12.00
2023-04-18T00:32:17.361Z,11.70
2023-04-18T00:40:40.337Z,10.70
2023-04-18T00:49:03.634Z,11.40
2023-04-18T00:57:26.973Z,11.90
2023-04-18T01:05:50.171Z,12.50
2023-04-18T01:14:13.227Z,12.70
2023-04-18T01:22:36.623Z,11.10
2023-04-18T01:30:59.601Z,12.10
2023-04-18T01:39:22.624Z,12.50
2023-04-18T01:47:46.484Z,11.80
2023-04-18T01:56:10.264Z,11.00
2023-04-18T02:04:33.158Z,12.30
2023-04-18T02:12:56.142Z,11.50
2023-04-18T02:21:19.216Z,13.30
2023-04-18T02:29:42.055Z,12.70
2023-04-18T02:38:04.960Z,13.50
2023-04-18T02:46:27.878Z,12.50
2023-04-18T02:54:51.251Z,14.10
2023-04-18T03:03:18.213Z,13.60
2023-04-18T03:11:51.038Z,11.80
2023-04-18T03:20:16.294Z,12.70
2023-04-18T03:28:40.221Z,13.30
2023-04-18T03:37:03.653Z,12.60
2023-04-18T03:45:28.629Z,12.90
2023-04-18T03:53:51.954Z,13.00
2023-04-18T04:02:15.078Z,12.30
2023-04-18T04:10:38.663Z,11.50
2023-04-18T04:19:01.864Z,12.80
2023-04-18T04:27:30.471Z,14.00
2023-04-18T04:35:53.702Z,12.40
2023-04-18T04:44:17.781Z,12.70
2023-04-18T04:52:42.312Z,13.00
2023-04-18T05:01:07.790Z,13.10
2023-04-18T05:09:31.604Z,12.00
2023-04-18T05:17:54.732Z,19.50
2023-04-18T05:26:18.817Z,13.20
2023-04-18T05:34:42.337Z,14.40
2023-04-18T05:43:05.659Z,12.70
2023-04-18T05:51:28.688Z,12.90
2023-04-18T05:59:51.878Z,13.30
2023-04-18T06:08:14.822Z,18.20
2023-04-18T06:16:38.279Z,13.70
2023-04-18T06:25:01.492Z,10.90
2023-04-18T06:33:24.621Z,12.40
2023-04-18T06:41:50.801Z,12.20
2023-04-18T06:50:23.315Z,11.50
2023-04-18T06:58:46.860Z,15.90
2023-04-18T07:07:10.021Z,11.70
2023-04-18T07:15:35.471Z,12.60
2023-04-18T07:23:58.571Z,11.60
2023-04-18T07:32:21.775Z,10.70
2023-04-18T07:40:45.896Z,12.70
2023-04-18T07:49:09.061Z,11.80
2023-04-18T07:57:32.001Z,12.00
2023-04-18T08:05:55.500Z,13.30
2023-04-18T08:14:18.597Z,11.80
2023-04-18T08:22:57.631Z,10.70
2023-04-18T08:31:28.023Z,32.80
2023-04-18T08:39:51.093Z,11.80
2023-04-18T08:48:16.504Z,30.50
2023-04-18T08:56:42.175Z,18.70
2023-04-18T09:05:21.849Z,14.30
2023-04-18T09:13:47.354Z,11.50
2023-04-18T09:22:10.713Z,14.90
2023-04-18T09:30:40.476Z,37.00
2023-04-18T09:39:04.249Z,12.50
2023-04-18T09:47:28.629Z,15.70
2023-04-18T09:55:56.154Z,10.30
2023-04-18T10:04:21.281Z,11.20
2023-04-18T10:12:47.874Z,14.60
2023-04-18T10:21:11.086Z,12.40
2023-04-18T10:29:50.086Z,12.00
2023-04-18T10:38:23.389Z,12.50
2023-04-18T10:46:52.546Z,18.60
2023-04-18T10:55:25.427Z,11.70
2023-04-18T11:03:48.468Z,22.90
2023-04-18T11:12:12.167Z,11.10
2023-04-18T11:20:41.155Z,14.20
2023-04-18T11:29:04.658Z,11.20
2023-04-18T11:37:27.579Z,12.50
2023-04-18T11:45:55.167Z,12.10
2023-04-18T11:54:39.640Z,11.10
2023-04-18T12:03:11.883Z,11.60
2023-04-18T12:11:37.398Z,13.70
2023-04-18T12:20:10.041Z,11.30
2023-04-18T12:28:34.740Z,13.30
2023-04-18T12:36:57.654Z,18.90
2023-04-18T12:45:22.089Z,13.40
2023-04-18T12:53:44.935Z,13.60
2023-04-18T13:02:07.910Z,12.20
2023-04-18T13:10:31.670Z,9.70
2023-04-18T13:18:54.509Z,8.60
2023-04-18T13:27:17.428Z,10.90
2023-04-18T13:35:41.624Z,7.00
2023-04-18T13:44:05.896Z,8.10
2023-04-18T13:52:28.935Z,10.60
2023-04-18T14:00:51.728Z,13.10
2023-04-18T14:09:14.802Z,10.50
2023-04-18T14:17:38.142Z,10.10
2023-04-18T14:26:02.132Z,11.00
2023-04-18T14:34:24.975Z,11.40
2023-04-18T14:42:48.066Z,10.30
2023-04-18T14:51:10.997Z,12.20
2023-04-18T14:59:33.906Z,9.00
2023-04-18T15:07:57.000Z,12.30
2023-04-18T15:16:20.131Z,11.90
2023-04-18T15:24:44.203Z,11.30
2023-04-18T15:33:08.322Z,17.90
2023-04-18T15:41:36.975Z,13.70
2023-04-18T15:50:01.296Z,11.10
2023-04-18T15:58:27.675Z,11.20
2023-04-18T16:06:50.593Z,13.40
2023-04-18T16:15:14.655Z,13.30
2023-04-18T16:23:38.583Z,15.70
2023-04-18T16:32:01.511Z,13.10
2023-04-18T16:40:26.474Z,15.50
2023-04-18T16:48:51.751Z,14.50
2023-04-18T16:57:15.701Z,12.80
2023-04-18T17:05:39.688Z,12.90
2023-04-18T17:14:02.627Z,13.50
2023-04-18T17:22:26.802Z,17.30
2023-04-18T17:30:51.450Z,16.10
2023-04-18T17:39:17.296Z,14.90
2023-04-18T17:47:42.315Z,27.40
2023-04-18T17:56:05.392Z,22.50
2023-04-18T18:04:28.682Z,24.20
2023-04-18T18:12:52.128Z,30.00
2023-04-18T18:21:19.047Z,42.60
2023-04-18T18:29:42.206Z,71.90
2023-04-18T18:38:07.785Z,139.30
2023-04-18T18:46:31.072Z,47.00
2023-04-18T18:54:55.301Z,46.30
2023-04-18T19:03:22.175Z,59.10
2023-04-18T19:11:45.418Z,50.50
2023-04-18T19:20:09.623Z,53.40
2023-04-18T19:28:32.528Z,47.40
2023-04-18T19:37:21.133Z,53.00
2023-04-18T19:45:45.969Z,76.30
2023-04-18T19:54:10.285Z,36.60
2023-04-18T20:02:33.450Z,37.80
2023-04-18T20:10:59.291Z,29.70
2023-04-18T20:19:26.911Z,23.70
2023-04-18T20:27:50.955Z,27.10
2023-04-18T20:36:14.121Z,29.60
2023-04-18T20:44:40.121Z,28.40
2023-04-18T20:53:04.341Z,21.50
2023-04-18T21:01:27.308Z,25.40
2023-04-18T21:09:50.482Z,19.30
2023-04-18T21:18:13.428Z,17.20
2023-04-18T21:26:36.500Z,16.40
2023-04-18T21:35:00.602Z,14.20
2023-04-18T21:43:23.601Z,12.30
2023-04-18T21:51:46.650Z,14.70
2023-04-18T22:00:11.292Z,11.80
2023-04-18T22:08:36.384Z,9.00
2023-04-18T22:17:03.606Z,7.00
2023-04-18T22:25:26.445Z,7.80
2023-04-18T22:33:49.404Z,12.00
2023-04-18T22:42:12.269Z,7.90
2023-04-18T22:50:38.131Z,6.20
2023-04-18T22:59:01.055Z,5.00
2023-04-18T23:07:23.942Z,6.10
2023-04-18T23:15:46.792Z,5.00
2023-04-18T23:24:12.748Z,5.80
2023-04-18T23:32:37.161Z,6.80
2023-04-18T23:41:02.772Z,6.30
2023-04-18T23:49:27.757Z,6.90
2023-04-18T23:57:50.914Z,6.50
